createdAt,value
2018-12-14T00:01:33.187Z,18.13
2018-12-14T00:04:02.451Z,18.00
2018-12-14T00:06:30.937Z,17.23
2018-12-14T00:08:59.376Z,18.10
2018-12-14T00:11:27.819Z,18.40
2018-12-14T00:13:56.267Z,18.00
2018-12-14T00:16:24.694Z,18.30
2018-12-14T00:18:53.137Z,17.03
2018-12-14T00:21:21.620Z,17.43
2018-12-14T00:23:50.060Z,17.37
2018-12-14T00:26:18.512Z,18.57
2018-12-14T00:28:46.962Z,18.87
2018-12-14T00:31:15.402Z,19.03
2018-12-14T00:33:43.858Z,19.20
2018-12-14T00:36:12.285Z,20.67
2018-12-14T00:38:40.797Z,20.10
2018-12-14T00:41:09.228Z,18.03
2018-12-14T00:43:37.668Z,19.53
2018-12-14T00:46:06.094Z,19.93
2018-12-14T00:48:34.516Z,19.70
2018-12-14T00:51:02.968Z,20.00
2018-12-14T00:53:31.393Z,20.07
2018-12-14T00:55:59.847Z,20.10
2018-12-14T00:58:28.271Z,20.27
2018-12-14T01:00:56.724Z,18.93
2018-12-14T01:03:25.165Z,20.90
2018-12-14T01:05:53.604Z,20.37
2018-12-14T01:08:22.033Z,19.93
2018-12-14T01:10:50.482Z,19.80
2018-12-14T01:13:18.905Z,21.80
2018-12-14T01:15:48.277Z,21.20
2018-12-14T01:18:16.699Z,20.50
2018-12-14T01:20:45.145Z,19.60
2018-12-14T01:23:13.574Z,20.10
2018-12-14T01:25:42.010Z,21.00
2018-12-14T01:28:10.446Z,20.57
2018-12-14T01:30:38.907Z,21.30
2018-12-14T01:33:07.332Z,21.00
2018-12-14T01:35:35.832Z,20.60
2018-12-14T01:38:04.327Z,21.07
2018-12-14T01:40:32.772Z,21.50
2018-12-14T01:43:01.209Z,20.90
2018-12-14T01:45:29.710Z,19.97
2018-12-14T01:47:58.137Z,21.43
2018-12-14T01:50:26.589Z,18.87
2018-12-14T01:52:55.016Z,20.90
2018-12-14T01:55:23.608Z,21.33
2018-12-14T01:57:52.116Z,21.27
2018-12-14T02:00:20.976Z,19.43
2018-12-14T02:02:49.401Z,22.50
2018-12-14T02:05:17.845Z,20.90
2018-12-14T02:07:46.277Z,22.00
2018-12-14T02:10:14.746Z,21.13
2018-12-14T02:12:43.185Z,20.67
2018-12-14T02:15:11.652Z,21.47
2018-12-14T02:17:40.073Z,22.03
2018-12-14T02:20:08.672Z,22.47
2018-12-14T02:22:37.096Z,21.80
2018-12-14T02:25:06.064Z,23.10
2018-12-14T02:27:34.505Z,21.20
2018-12-14T02:30:09.948Z,20.47
2018-12-14T02:32:38.387Z,21.70
2018-12-14T02:35:06.887Z,21.00
2018-12-14T02:37:35.321Z,21.47
2018-12-14T02:40:03.835Z,21.63
2018-12-14T02:42:32.318Z,22.20
2018-12-14T02:45:00.793Z,21.77
2018-12-14T02:47:29.220Z,22.13
2018-12-14T02:49:57.674Z,21.33
2018-12-14T02:52:26.101Z,22.27
2018-12-14T02:54:54.540Z,23.03
2018-12-14T02:57:22.966Z,21.10
2018-12-14T02:59:51.413Z,21.90
2018-12-14T03:02:19.931Z,22.23
2018-12-14T03:04:48.381Z,23.70
2018-12-14T03:07:16.830Z,21.13
2018-12-14T03:09:45.590Z,23.27
2018-12-14T03:12:14.073Z,22.33
2018-12-14T03:14:42.975Z,22.30
2018-12-14T03:17:11.504Z,22.90
2018-12-14T03:19:39.946Z,23.17
2018-12-14T03:22:08.386Z,22.27
2018-12-14T03:24:36.813Z,21.43
2018-12-14T03:27:05.400Z,24.07
2018-12-14T03:29:33.830Z,23.63
2018-12-14T03:32:02.280Z,23.33
2018-12-14T03:34:30.700Z,22.20
2018-12-14T03:36:59.146Z,23.00
2018-12-14T03:39:27.565Z,23.43
2018-12-14T03:41:56.014Z,24.00
2018-12-14T03:44:24.439Z,23.00
2018-12-14T03:46:52.952Z,23.47
2018-12-14T03:49:21.889Z,23.73
2018-12-14T03:51:50.336Z,25.30
2018-12-14T03:54:18.762Z,23.40
2018-12-14T03:56:47.207Z,23.40
2018-12-14T03:59:15.637Z,24.10
2018-12-14T04:01:44.132Z,23.53
2018-12-14T04:04:12.562Z,21.90
2018-12-14T04:06:41.066Z,23.67
2018-12-14T04:09:09.493Z,22.83
2018-12-14T04:11:37.959Z,22.10
2018-12-14T04:14:06.382Z,23.33
2018-12-14T04:16:34.830Z,23.33
2018-12-14T04:19:03.273Z,23.50
2018-12-14T04:21:32.555Z,23.70
2018-12-14T04:24:01.254Z,25.10
2018-12-14T04:26:29.723Z,23.53
2018-12-14T04:28:58.185Z,23.03
2018-12-14T04:31:26.620Z,23.03
2018-12-14T04:33:55.672Z,22.90
2018-12-14T04:36:24.118Z,23.33
2018-12-14T04:38:52.552Z,24.53
2018-12-14T04:41:21.005Z,22.53
2018-12-14T04:43:49.433Z,23.40
2018-12-14T04:46:17.877Z,22.60
2018-12-14T04:48:46.292Z,21.90
2018-12-14T04:51:14.722Z,23.40
2018-12-14T04:53:43.171Z,22.57
2018-12-14T04:56:11.594Z,21.73
2018-12-14T04:58:40.050Z,22.10
2018-12-14T05:01:08.488Z,22.27
2018-12-14T05:03:36.934Z,23.43
2018-12-14T05:06:05.432Z,22.03
2018-12-14T05:08:33.897Z,23.10
2018-12-14T05:11:02.318Z,23.23
2018-12-14T05:13:30.771Z,23.10
2018-12-14T05:15:59.193Z,21.83
2018-12-14T05:18:27.658Z,22.43
2018-12-14T05:20:56.089Z,21.97
2018-12-14T05:23:24.540Z,23.17
2018-12-14T05:25:52.972Z,23.67
2018-12-14T05:28:21.428Z,21.77
2018-12-14T05:30:49.849Z,21.93
2018-12-14T05:33:18.283Z,22.07
2018-12-14T05:35:46.774Z,22.97
2018-12-14T05:38:15.275Z,21.53
2018-12-14T05:40:43.719Z,22.13
2018-12-14T05:43:12.188Z,22.23
2018-12-14T05:45:40.980Z,22.80
2018-12-14T05:48:09.406Z,22.77
2018-12-14T05:50:37.853Z,22.23
2018-12-14T05:53:06.277Z,21.70
2018-12-14T05:55:34.717Z,22.90
2018-12-14T05:58:03.179Z,23.00
2018-12-14T06:00:32.580Z,20.83
2018-12-14T06:03:01.018Z,22.07
2018-12-14T06:05:29.457Z,22.60
2018-12-14T06:07:57.897Z,22.33
2018-12-14T06:10:26.372Z,21.60
2018-12-14T06:12:54.792Z,21.70
2018-12-14T06:15:23.237Z,21.50
2018-12-14T06:17:51.663Z,20.67
2018-12-14T06:20:20.114Z,21.93
2018-12-14T06:22:48.540Z,22.07
2018-12-14T06:25:16.989Z,22.23
2018-12-14T06:27:45.424Z,21.93
2018-12-14T06:30:13.860Z,21.47
2018-12-14T06:32:42.296Z,21.53
2018-12-14T06:35:10.739Z,21.33
2018-12-14T06:37:39.167Z,20.53
2018-12-14T06:40:07.656Z,20.47
2018-12-14T06:42:36.083Z,21.33
2018-12-14T06:45:05.781Z,22.30
2018-12-14T06:47:34.280Z,20.23
2018-12-14T06:50:02.749Z,22.73
2018-12-14T06:52:31.213Z,20.80
2018-12-14T06:54:59.633Z,20.93
2018-12-14T06:57:28.076Z,22.33
2018-12-14T06:59:56.511Z,22.57
2018-12-14T07:02:24.966Z,22.93
2018-12-14T07:04:53.398Z,22.33
2018-12-14T07:07:21.852Z,22.50
2018-12-14T07:09:50.385Z,22.00
2018-12-14T07:12:18.825Z,23.87
2018-12-14T07:14:47.258Z,21.73
2018-12-14T07:17:15.719Z,21.80
2018-12-14T07:19:44.150Z,23.27
2018-12-14T07:22:12.599Z,22.50
2018-12-14T07:24:41.023Z,22.30
2018-12-14T07:27:09.473Z,20.30
2018-12-14T07:29:37.900Z,22.60
2018-12-14T07:32:06.357Z,21.80
2018-12-14T07:34:34.784Z,23.07
2018-12-14T07:37:03.265Z,22.37
2018-12-14T07:39:31.690Z,22.97
2018-12-14T07:42:00.126Z,23.30
2018-12-14T07:44:28.604Z,22.57
2018-12-14T07:46:57.270Z,22.27
2018-12-14T07:49:25.748Z,22.57
2018-12-14T07:51:54.192Z,23.53
2018-12-14T07:54:22.886Z,22.77
2018-12-14T07:56:51.325Z,22.70
2018-12-14T07:59:20.693Z,23.73
2018-12-14T08:01:49.161Z,22.43
2018-12-14T08:04:18.332Z,22.70
2018-12-14T08:06:46.996Z,23.43
2018-12-14T08:09:15.464Z,23.73
2018-12-14T08:11:43.906Z,24.10
2018-12-14T08:14:12.350Z,22.77
2018-12-14T08:16:40.786Z,22.87
2018-12-14T08:19:09.256Z,21.60
2018-12-14T08:21:37.694Z,21.60
2018-12-14T08:24:06.135Z,23.43
2018-12-14T08:26:34.553Z,24.40
2018-12-14T08:29:08.947Z,22.40
2018-12-14T08:31:37.427Z,20.70
2018-12-14T08:34:05.868Z,22.37
2018-12-14T08:36:34.285Z,21.60
2018-12-14T08:39:02.812Z,21.93
2018-12-14T08:41:31.249Z,21.00
2018-12-14T08:43:59.710Z,21.40
2018-12-14T08:46:28.146Z,22.30
2018-12-14T08:48:56.614Z,21.93
2018-12-14T08:51:25.101Z,21.47
2018-12-14T08:53:53.612Z,20.80
2018-12-14T08:56:22.061Z,21.53
2018-12-14T08:58:50.500Z,21.67
2018-12-14T09:01:18.948Z,22.27
2018-12-14T09:03:47.411Z,21.33
2018-12-14T09:06:15.841Z,21.20
2018-12-14T09:08:44.288Z,20.80
2018-12-14T09:11:13.043Z,22.53
2018-12-14T09:13:47.716Z,22.17
2018-12-14T09:16:11.916Z,20.53
2018-12-14T09:18:40.356Z,20.83
2018-12-14T09:21:08.783Z,21.60
2018-12-14T09:23:38.068Z,20.33
2018-12-14T09:26:06.514Z,21.73
2018-12-14T09:28:35.589Z,19.17
2018-12-14T09:31:04.071Z,19.63
2018-12-14T09:33:32.508Z,20.53
2018-12-14T09:36:00.939Z,19.93
2018-12-14T09:38:29.389Z,20.33
2018-12-14T09:40:57.807Z,19.67
2018-12-14T09:43:26.656Z,18.93
2018-12-14T09:45:55.072Z,20.10
2018-12-14T09:48:23.544Z,18.83
2018-12-14T09:50:52.029Z,17.53
2018-12-14T09:53:20.943Z,16.50
2018-12-14T09:55:49.360Z,17.73
2018-12-14T09:58:17.780Z,17.60
2018-12-14T10:00:46.232Z,17.43
2018-12-14T10:03:14.684Z,16.67
2018-12-14T10:05:43.119Z,16.20
2018-12-14T10:08:11.540Z,16.13
2018-12-14T10:10:40.575Z,15.57
2018-12-14T10:13:09.358Z,17.70
2018-12-14T10:15:37.798Z,15.67
2018-12-14T10:18:06.234Z,15.97
2018-12-14T10:20:35.031Z,15.87
2018-12-14T10:23:03.717Z,16.03
2018-12-14T10:25:32.185Z,15.03
2018-12-14T10:28:00.625Z,14.57
2018-12-14T10:30:29.094Z,14.67
2018-12-14T10:32:57.529Z,14.03
2018-12-14T10:35:25.980Z,14.43
2018-12-14T10:37:54.440Z,14.93
2018-12-14T10:40:22.886Z,15.03
2018-12-14T10:42:51.327Z,15.07
2018-12-14T10:45:20.777Z,14.43
2018-12-14T10:47:49.202Z,14.10
2018-12-14T10:50:17.645Z,13.93
2018-12-14T10:52:46.062Z,14.50
2018-12-14T10:55:14.519Z,13.53
2018-12-14T10:57:43.351Z,14.30
2018-12-14T11:00:16.058Z,12.90
2018-12-14T11:02:44.490Z,13.30
2018-12-14T11:05:12.998Z,13.30
2018-12-14T11:07:41.440Z,14.47
2018-12-14T11:10:09.989Z,14.47
2018-12-14T11:12:38.421Z,14.17
2018-12-14T11:15:06.983Z,14.77
2018-12-14T11:17:35.416Z,15.17
2018-12-14T11:20:03.917Z,14.50
2018-12-14T11:22:32.625Z,14.30
2018-12-14T11:25:01.069Z,14.13
2018-12-14T11:27:29.514Z,14.03
2018-12-14T11:29:57.966Z,14.40
2018-12-14T11:32:28.097Z,14.13
2018-12-14T11:34:56.546Z,15.17
2018-12-14T11:37:24.962Z,15.10
2018-12-14T11:39:53.396Z,14.57
2018-12-14T11:42:21.826Z,14.50
2018-12-14T11:44:50.292Z,15.63
2018-12-14T11:47:18.719Z,14.57
2018-12-14T11:49:48.513Z,14.47
2018-12-14T11:52:17.588Z,14.77
2018-12-14T11:54:46.038Z,14.60
2018-12-14T11:57:14.528Z,15.00
2018-12-14T11:59:42.981Z,15.20
2018-12-14T12:02:12.734Z,14.70
2018-12-14T12:04:41.539Z,15.17
2018-12-14T12:07:10.075Z,15.37
2018-12-14T12:09:38.749Z,15.03
2018-12-14T12:12:07.172Z,14.43
2018-12-14T12:14:35.593Z,14.07
2018-12-14T12:17:04.027Z,16.00
2018-12-14T12:19:32.481Z,14.70
2018-12-14T12:22:00.977Z,14.63
2018-12-14T12:24:29.412Z,15.00
2018-12-14T12:26:57.848Z,13.77
2018-12-14T12:29:26.324Z,14.93
2018-12-14T12:31:54.761Z,14.20
2018-12-14T12:34:23.185Z,13.67
2018-12-14T12:36:51.638Z,14.30
2018-12-14T12:39:20.077Z,14.13
2018-12-14T12:41:48.516Z,13.67
2018-12-14T12:44:16.972Z,14.37
2018-12-14T12:46:45.438Z,14.30
2018-12-14T12:49:13.856Z,13.63
2018-12-14T12:51:42.300Z,13.90
2018-12-14T12:54:10.728Z,14.63
2018-12-14T12:56:39.646Z,15.03
2018-12-14T12:59:08.125Z,13.33
2018-12-14T13:01:36.796Z,14.57
2018-12-14T13:04:05.240Z,14.43
2018-12-14T13:06:33.704Z,12.87
2018-12-14T13:09:02.136Z,14.47
2018-12-14T13:11:30.598Z,15.20
2018-12-14T13:13:59.026Z,14.57
2018-12-14T13:16:27.540Z,14.27
2018-12-14T13:18:55.961Z,13.70
2018-12-14T13:21:24.485Z,14.90
2018-12-14T13:23:52.916Z,14.77
2018-12-14T13:26:21.356Z,14.07
2018-12-14T13:28:49.775Z,13.47
2018-12-14T13:31:18.220Z,14.07
2018-12-14T13:33:46.654Z,13.70
2018-12-14T13:36:15.110Z,13.97
2018-12-14T13:38:43.557Z,13.77
2018-12-14T13:41:12.021Z,13.97
2018-12-14T13:43:40.460Z,15.00
2018-12-14T13:46:08.926Z,14.17
2018-12-14T13:48:37.364Z,14.17
2018-12-14T13:51:06.191Z,14.70
2018-12-14T13:53:34.881Z,14.73
2018-12-14T13:56:03.324Z,14.90
2018-12-14T13:58:31.821Z,15.03
2018-12-14T14:01:00.273Z,14.93
2018-12-14T14:03:28.718Z,14.80
2018-12-14T14:05:57.220Z,14.50
2018-12-14T14:08:25.645Z,13.97
2018-12-14T14:10:54.081Z,14.60
2018-12-14T14:13:22.496Z,13.27
2018-12-14T14:15:52.601Z,14.17
2018-12-14T14:18:21.026Z,14.20
2018-12-14T14:20:49.503Z,14.63
2018-12-14T14:23:18.571Z,14.40
2018-12-14T14:25:47.287Z,14.63
2018-12-14T14:28:15.729Z,14.67
2018-12-14T14:30:44.149Z,14.63
2018-12-14T14:33:12.596Z,14.43
2018-12-14T14:35:41.058Z,14.57
2018-12-14T14:38:09.555Z,13.77
2018-12-14T14:40:37.996Z,14.00
2018-12-14T14:43:06.444Z,14.13
2018-12-14T14:45:34.871Z,13.47
2018-12-14T14:48:03.341Z,14.97
2018-12-14T14:50:31.769Z,13.43
2018-12-14T14:53:00.224Z,14.77
2018-12-14T14:55:28.690Z,14.10
2018-12-14T14:57:57.159Z,14.17
2018-12-14T15:00:25.665Z,14.07
2018-12-14T15:02:54.845Z,13.80
2018-12-14T15:05:23.269Z,14.37
2018-12-14T15:07:51.734Z,13.83
2018-12-14T15:10:21.003Z,14.70
2018-12-14T15:12:49.469Z,15.47
2018-12-14T15:15:17.896Z,13.97
2018-12-14T15:17:46.358Z,14.53
2018-12-14T15:20:14.785Z,14.83
2018-12-14T15:22:43.228Z,14.47
2018-12-14T15:25:11.705Z,14.90
2018-12-14T15:27:40.141Z,14.57
2018-12-14T15:30:08.676Z,14.87
2018-12-14T15:32:37.229Z,15.10
2018-12-14T15:35:06.113Z,14.30
2018-12-14T15:37:34.552Z,15.33
2018-12-14T15:40:02.978Z,15.07
2018-12-14T15:42:32.064Z,14.80
2018-12-14T15:45:00.488Z,14.63
2018-12-14T15:47:28.949Z,14.73
2018-12-14T15:49:57.438Z,13.17
2018-12-14T15:52:27.958Z,14.97
2018-12-14T15:54:57.240Z,16.30
2018-12-14T15:57:25.761Z,15.47
2018-12-14T15:59:54.193Z,16.23
2018-12-14T16:02:22.697Z,13.47
2018-12-14T16:04:51.118Z,14.83
2018-12-14T16:07:19.566Z,13.90
2018-12-14T16:09:47.992Z,14.40
2018-12-14T16:12:16.434Z,14.40
2018-12-14T16:14:44.891Z,13.83
2018-12-14T16:17:13.380Z,13.17
2018-12-14T16:19:41.875Z,15.03
2018-12-14T16:22:10.355Z,14.50
2018-12-14T16:24:39.101Z,14.00
2018-12-14T16:27:07.611Z,13.53
2018-12-14T16:29:36.052Z,13.20
2018-12-14T16:32:04.620Z,13.50
2018-12-14T16:34:33.049Z,13.53
2018-12-14T16:37:01.775Z,14.60
2018-12-14T16:39:32.486Z,13.60
2018-12-14T16:42:00.956Z,14.47
2018-12-14T16:44:29.372Z,14.10
2018-12-14T16:46:57.944Z,15.20
2018-12-14T16:49:26.384Z,13.83
2018-12-14T16:51:54.816Z,14.07
2018-12-14T16:54:23.275Z,13.33
2018-12-14T16:56:51.713Z,14.47
2018-12-14T16:59:20.365Z,14.93
2018-12-14T17:01:48.847Z,13.33
2018-12-14T17:04:17.340Z,13.80
2018-12-14T17:06:45.836Z,13.57
2018-12-14T17:09:14.321Z,14.67
2018-12-14T17:11:42.809Z,13.23
2018-12-14T17:14:11.309Z,14.53
2018-12-14T17:16:39.744Z,14.57
2018-12-14T17:19:08.192Z,14.87
2018-12-14T17:21:36.617Z,13.70
2018-12-14T17:24:05.120Z,13.07
2018-12-14T17:26:33.548Z,12.90
2018-12-14T17:29:02.049Z,13.23
2018-12-14T17:31:30.478Z,13.67
2018-12-14T17:33:59.252Z,13.93
2018-12-14T17:36:27.682Z,13.67
2018-12-14T17:38:56.196Z,14.20
2018-12-14T17:41:24.638Z,13.47
2018-12-14T17:43:53.080Z,14.10
2018-12-14T17:46:21.537Z,14.47
2018-12-14T17:48:49.984Z,14.07
2018-12-14T17:51:18.409Z,14.10
2018-12-14T17:53:46.891Z,14.63
2018-12-14T17:56:15.335Z,13.47
2018-12-14T17:58:43.801Z,16.03
2018-12-14T18:01:12.246Z,14.67
2018-12-14T18:03:40.692Z,16.00
2018-12-14T18:06:09.125Z,14.47
2018-12-14T18:08:37.595Z,14.93
2018-12-14T18:11:06.070Z,13.63
2018-12-14T18:13:34.507Z,13.90
2018-12-14T18:16:03.601Z,14.27
2018-12-14T18:18:32.057Z,14.63
2018-12-14T18:21:00.495Z,15.40
2018-12-14T18:23:28.946Z,14.93
2018-12-14T18:25:58.089Z,15.80
2018-12-14T18:28:26.529Z,15.73
2018-12-14T18:30:54.957Z,15.37
2018-12-14T18:33:23.403Z,14.73
2018-12-14T18:35:51.829Z,14.93
2018-12-14T18:38:20.282Z,15.07
2018-12-14T18:40:48.732Z,16.40
2018-12-14T18:43:17.194Z,15.70
2018-12-14T18:45:45.631Z,16.00
2018-12-14T18:48:14.074Z,15.80
2018-12-14T18:50:42.524Z,15.20
2018-12-14T18:53:10.968Z,15.83
2018-12-14T18:55:39.390Z,16.07
2018-12-14T18:58:07.836Z,16.77
2018-12-14T19:00:36.267Z,16.90
2018-12-14T19:03:04.775Z,15.83
2018-12-14T19:05:33.221Z,15.27
2018-12-14T19:08:01.677Z,16.80
2018-12-14T19:10:30.126Z,16.43
2018-12-14T19:12:58.551Z,16.07
2018-12-14T19:15:27.103Z,16.37
2018-12-14T19:17:55.960Z,15.33
2018-12-14T19:20:24.432Z,15.03
2018-12-14T19:22:52.853Z,16.97
2018-12-14T19:25:21.298Z,16.57
2018-12-14T19:27:49.723Z,17.33
2018-12-14T19:30:18.166Z,16.47
2018-12-14T19:32:46.608Z,16.90
2018-12-14T19:35:15.117Z,17.20
2018-12-14T19:37:43.540Z,16.50
2018-12-14T19:40:12.036Z,17.13
2018-12-14T19:42:40.465Z,17.47
2018-12-14T19:45:09.533Z,17.77
2018-12-14T19:47:38.109Z,18.13
2018-12-14T19:50:08.968Z,18.37
2018-12-14T19:52:37.396Z,18.00
2018-12-14T19:55:08.386Z,16.80
2018-12-14T19:57:36.816Z,18.03
2018-12-14T20:00:10.636Z,17.67
2018-12-14T20:02:39.212Z,18.07
2018-12-14T20:05:08.628Z,17.50
2018-12-14T20:07:38.284Z,19.07
2018-12-14T20:10:08.138Z,18.03
2018-12-14T20:12:36.974Z,18.30
2018-12-14T20:15:06.754Z,17.37
2018-12-14T20:17:35.237Z,18.30
2018-12-14T20:20:04.478Z,18.57
2018-12-14T20:22:32.907Z,18.50
2018-12-14T20:25:01.350Z,18.03
2018-12-14T20:27:29.781Z,19.57
2018-12-14T20:29:58.223Z,18.00
2018-12-14T20:32:26.663Z,20.07
2018-12-14T20:34:55.248Z,20.73
2018-12-14T20:37:23.689Z,20.80
2018-12-14T20:39:52.133Z,18.97
2018-12-14T20:42:20.565Z,18.33
2018-12-14T20:44:49.006Z,18.67
2018-12-14T20:47:17.434Z,18.93
2018-12-14T20:49:45.893Z,18.90
2018-12-14T20:52:14.381Z,18.03
2018-12-14T20:54:42.825Z,19.37
2018-12-14T20:57:11.281Z,18.53
2018-12-14T20:59:40.132Z,19.50
2018-12-14T21:02:08.573Z,19.47
2018-12-14T21:04:37.021Z,19.30
2018-12-14T21:07:05.463Z,20.57
2018-12-14T21:09:33.906Z,20.87
2018-12-14T21:12:02.342Z,19.03
2018-12-14T21:14:30.972Z,19.33
2018-12-14T21:16:59.389Z,19.40
2018-12-14T21:19:27.824Z,19.73
2018-12-14T21:21:56.253Z,21.33
2018-12-14T21:24:24.681Z,20.73
2018-12-14T21:26:53.151Z,19.93
2018-12-14T21:29:21.597Z,19.43
2018-12-14T21:31:50.059Z,20.87
2018-12-14T21:34:19.628Z,20.70
2018-12-14T21:36:48.079Z,19.87
2018-12-14T21:39:16.571Z,18.53
2018-12-14T21:41:45.027Z,20.83
2018-12-14T21:44:13.464Z,20.47
2018-12-14T21:46:41.911Z,21.60
2018-12-14T21:49:10.346Z,19.70
2018-12-14T21:51:38.788Z,20.67
2018-12-14T21:54:07.229Z,19.60
2018-12-14T21:56:35.696Z,19.83
2018-12-14T21:59:04.181Z,20.70
2018-12-14T22:01:32.626Z,19.23
2018-12-14T22:07:32.008Z,19.60
2018-12-14T22:10:00.464Z,19.97
2018-12-14T22:12:28.947Z,19.07
2018-12-14T22:14:57.383Z,20.03
2018-12-14T22:17:25.809Z,20.53
2018-12-14T22:19:54.257Z,20.10
2018-12-14T22:22:22.702Z,20.40
2018-12-14T22:24:51.139Z,19.87
2018-12-14T22:27:19.598Z,19.87
2018-12-14T22:29:49.241Z,20.30
2018-12-14T22:32:17.681Z,19.30
2018-12-14T22:34:46.385Z,19.60
2018-12-14T22:37:15.108Z,20.33
2018-12-14T22:39:43.597Z,19.97
2018-12-14T22:42:12.057Z,20.37
2018-12-14T22:44:40.509Z,19.90
2018-12-14T22:47:08.957Z,20.53
2018-12-14T22:49:37.388Z,21.60
2018-12-14T22:52:05.839Z,19.17
2018-12-14T22:54:34.274Z,20.50
2018-12-14T22:57:02.720Z,18.97
2018-12-14T22:59:31.144Z,20.33
2018-12-14T23:02:00.621Z,20.23
2018-12-14T23:04:29.114Z,21.13
2018-12-14T23:06:57.568Z,20.03
2018-12-14T23:09:25.992Z,20.87
2018-12-14T23:11:54.432Z,20.57
2018-12-14T23:14:22.856Z,20.77
2018-12-14T23:16:52.361Z,21.57
2018-12-14T23:19:21.193Z,21.23
2018-12-14T23:21:49.639Z,21.17
2018-12-14T23:24:18.094Z,20.07
2018-12-14T23:26:46.547Z,20.83
2018-12-14T23:29:14.981Z,21.63
2018-12-14T23:31:43.434Z,19.87
2018-12-14T23:34:11.856Z,20.80
2018-12-14T23:36:40.301Z,20.57
2018-12-14T23:39:08.729Z,20.33
2018-12-14T23:41:37.193Z,21.83
2018-12-14T23:44:05.614Z,20.30
2018-12-14T23:46:34.485Z,20.53
2018-12-14T23:49:02.910Z,20.50
2018-12-14T23:51:31.411Z,22.40
2018-12-14T23:53:59.840Z,22.33
2018-12-14T23:56:28.313Z,22.03
2018-12-14T23:58:56.763Z,21.53
